San Jose, Philippines
Current Conditions -  °F | °C
As of 8:00 PM on Sunday 23 Nov 2014 (Local Time) from RPLL Reporting Station
Few Clouds Few Clouds  
Wind Chill: 82°   Ceiling: Unl
Heat Index: 89°   Visibility: 6mi
Dew Point: 75°   Wind: 8mph
Humidity: 79%   Direction: 110°ESE
Pressure: 29.85"   Gusts: NA
Location:  12.35°N, 121.03°E
Report Text: RPLL 231200Z 11007KT 070V150 9999 FEW025 28/24 Q1011 NOSIG RMK A2985
Loading
Personal Weather Stations






























Interactive Weather Map New forecast layout! Learn more

10-Day Weather Forecast

Advertisements
Track Severe Weather on mobile